createdAt,value
2023-03-03T00:07:10.219Z,18.85
2023-03-03T00:14:44.109Z,22.50
2023-03-03T00:30:24.908Z,27.98
2023-03-03T00:38:02.381Z,24.67
2023-03-03T00:45:44.648Z,30.42
2023-03-03T00:53:21.833Z,28.45
2023-03-03T01:00:59.078Z,31.13
2023-03-03T01:08:34.759Z,32.63
2023-03-03T01:16:09.533Z,25.13
2023-03-03T01:23:45.082Z,29.88
2023-03-03T01:31:19.111Z,28.45
2023-03-03T01:46:56.629Z,22.75
2023-03-03T01:54:38.606Z,24.48
2023-03-03T02:02:12.858Z,25.02
2023-03-03T02:09:56.376Z,19.98
2023-03-03T02:17:30.324Z,24.50
2023-03-03T02:33:00.268Z,28.40
2023-03-03T02:40:39.530Z,30.92
2023-03-03T02:48:14.980Z,32.85
2023-03-03T03:03:41.679Z,22.35
2023-03-03T03:11:15.626Z,30.55
2023-03-03T03:34:18.557Z,34.53
2023-03-03T03:41:52.618Z,42.80
2023-03-03T03:49:28.077Z,33.90
2023-03-03T03:57:01.980Z,35.33
2023-03-03T04:04:37.584Z,32.42
2023-03-03T04:12:12.618Z,30.80
2023-03-03T04:19:48.413Z,25.63
2023-03-03T04:27:22.635Z,22.02
2023-03-03T04:35:07.272Z,22.27
2023-03-03T04:42:42.324Z,25.45
2023-03-03T04:57:51.842Z,27.40
2023-03-03T05:13:18.545Z,24.92
2023-03-03T05:20:54.373Z,34.58
2023-03-03T05:28:28.369Z,33.85
2023-03-03T05:51:13.288Z,30.65
2023-03-03T05:58:47.299Z,31.95
2023-03-03T06:13:56.395Z,24.95
2023-03-03T06:21:31.829Z,21.40
2023-03-03T06:29:05.629Z,24.50
2023-03-03T06:36:41.078Z,29.52
2023-03-03T06:44:14.963Z,29.33
2023-03-03T06:51:50.657Z,36.38
2023-03-03T06:59:24.904Z,24.52
2023-03-03T07:07:07.177Z,39.10
2023-03-03T07:14:45.107Z,30.77
2023-03-03T07:22:22.439Z,29.65
2023-03-03T07:30:03.122Z,34.80
2023-03-03T07:37:40.437Z,26.05
2023-03-03T07:45:28.221Z,22.10
2023-03-03T07:53:06.479Z,24.58
2023-03-03T08:01:13.044Z,20.83
2023-03-03T08:08:48.405Z,22.80
2023-03-03T08:16:38.749Z,23.48
2023-03-03T08:24:14.012Z,22.83
2023-03-03T08:31:48.197Z,22.85
2023-03-03T08:39:23.923Z,17.30
2023-03-03T08:46:58.201Z,21.60
2023-03-03T08:54:33.509Z,16.35
2023-03-03T09:02:08.090Z,17.42
2023-03-03T09:09:43.357Z,19.25
2023-03-03T09:17:26.609Z,16.63
2023-03-03T09:25:04.391Z,19.58
2023-03-03T09:32:40.579Z,18.35
2023-03-03T09:40:46.930Z,17.98
2023-03-03T09:48:52.437Z,19.10
2023-03-03T09:56:35.581Z,17.95
2023-03-03T10:04:37.724Z,22.38
2023-03-03T10:12:22.730Z,26.25
2023-03-03T10:20:13.549Z,28.15
2023-03-03T10:28:02.696Z,26.35
2023-03-03T10:36:07.721Z,25.52
2023-03-03T10:52:03.796Z,28.60
2023-03-03T10:59:51.130Z,27.02
2023-03-03T11:07:34.833Z,25.90
2023-03-03T11:15:29.135Z,29.30
2023-03-03T11:23:16.702Z,31.87
2023-03-03T11:31:11.410Z,31.52
2023-03-03T11:38:55.282Z,31.85
2023-03-03T11:46:33.706Z,36.00
2023-03-03T11:54:16.751Z,32.25
2023-03-03T12:01:54.398Z,40.55
2023-03-03T12:09:41.484Z,32.33
2023-03-03T12:17:30.277Z,29.02
2023-03-03T12:25:21.002Z,29.13
2023-03-03T12:33:13.410Z,36.25
2023-03-03T12:40:59.185Z,30.45
2023-03-03T12:48:41.716Z,28.05
2023-03-03T12:56:24.883Z,29.52
2023-03-03T13:04:07.006Z,29.05
2023-03-03T13:11:56.840Z,33.38
2023-03-03T13:19:38.242Z,29.42
2023-03-03T13:27:16.728Z,23.35
2023-03-03T13:34:57.142Z,27.58
2023-03-03T13:42:40.427Z,31.05
2023-03-03T13:58:27.418Z,28.23
2023-03-03T14:13:47.781Z,28.67
2023-03-03T14:21:28.174Z,33.53
2023-03-03T14:29:21.567Z,24.73
2023-03-03T14:37:09.975Z,24.50
2023-03-03T14:44:56.047Z,29.23
2023-03-03T14:52:31.798Z,24.80
2023-03-03T15:00:28.697Z,24.80
2023-03-03T15:16:11.799Z,25.45
2023-03-03T15:23:57.071Z,22.08
2023-03-03T15:31:43.667Z,27.05
2023-03-03T15:39:25.492Z,25.08
2023-03-03T15:47:20.807Z,23.52
2023-03-03T16:02:48.408Z,24.17
2023-03-03T16:18:35.411Z,18.08
2023-03-03T16:26:17.820Z,22.05
2023-03-03T16:34:02.366Z,15.45
2023-03-03T16:41:48.534Z,23.73
2023-03-03T16:49:29.961Z,19.83
2023-03-03T16:57:12.664Z,18.90
2023-03-03T17:04:57.886Z,17.98
2023-03-03T17:12:48.456Z,22.00
2023-03-03T17:20:33.959Z,17.80
2023-03-03T17:28:26.795Z,20.55
2023-03-03T17:36:19.377Z,20.30
2023-03-03T17:44:02.138Z,16.58
2023-03-03T17:51:49.506Z,18.05
2023-03-03T17:59:42.355Z,18.25
2023-03-03T18:07:36.691Z,21.90
2023-03-03T18:15:29.200Z,19.90
2023-03-03T18:23:29.788Z,18.75
2023-03-03T18:31:05.113Z,25.25
2023-03-03T18:38:44.758Z,23.92
2023-03-03T18:46:51.269Z,25.33
2023-03-03T18:54:33.282Z,26.42
2023-03-03T19:02:19.809Z,28.27
2023-03-03T19:10:31.695Z,28.20
2023-03-03T19:18:14.686Z,28.42
2023-03-03T19:26:20.317Z,32.47
2023-03-03T19:41:46.915Z,29.58
2023-03-03T19:57:42.007Z,24.55
2023-03-03T20:05:23.025Z,29.52
2023-03-03T20:13:14.356Z,28.48
2023-03-03T20:21:01.122Z,32.08
2023-03-03T20:29:02.033Z,28.25
2023-03-03T20:36:46.902Z,25.83
2023-03-03T20:52:29.355Z,24.48
2023-03-03T21:00:14.709Z,26.77
2023-03-03T21:07:54.485Z,27.05
2023-03-03T21:15:33.961Z,22.35
2023-03-03T21:23:11.895Z,22.77
2023-03-03T21:31:08.864Z,21.95
2023-03-03T21:38:43.756Z,24.63
2023-03-03T21:46:23.485Z,27.73
2023-03-03T21:53:57.534Z,26.25
2023-03-03T22:01:33.166Z,30.00
2023-03-03T22:09:08.005Z,34.53
2023-03-03T22:16:43.687Z,36.53
2023-03-03T22:24:18.398Z,34.67
2023-03-03T22:31:53.710Z,36.65
2023-03-03T22:39:27.882Z,32.88
2023-03-03T22:47:03.090Z,47.30
2023-03-03T22:54:37.021Z,38.22
2023-03-03T23:10:30.405Z,37.25
2023-03-03T23:18:22.697Z,39.65
2023-03-03T23:26:00.953Z,34.05
2023-03-03T23:34:02.374Z,38.65
2023-03-03T23:49:40.022Z,36.37
2023-03-03T23:57:23.637Z,39.03
